sensor_id;sensor_type;location;lat;lon;timestamp;pressure;altitude;pressure_sealevel;temperature;humidity
71772;BME280;59606;52.138;5.424;2023-02-28T00:00:20;103359.50;;;1.33;86.12
71772;BME280;59606;52.138;5.424;2023-02-28T00:02:47;103354.38;;;1.33;85.95
71772;BME280;59606;52.138;5.424;2023-02-28T00:05:19;103348.38;;;1.32;86.26
71772;BME280;59606;52.138;5.424;2023-02-28T00:07:46;103354.38;;;1.33;86.73
71772;BME280;59606;52.138;5.424;2023-02-28T00:10:16;103351.03;;;1.35;86.17
71772;BME280;59606;52.138;5.424;2023-02-28T00:12:47;103358.81;;;1.38;86.67
71772;BME280;59606;52.138;5.424;2023-02-28T00:15:14;103356.31;;;1.41;86.52
71772;BME280;59606;52.138;5.424;2023-02-28T00:17:41;103356.34;;;1.43;86.72
71772;BME280;59606;52.138;5.424;2023-02-28T00:20:08;103352.06;;;1.44;86.93
71772;BME280;59606;52.138;5.424;2023-02-28T00:22:37;103363.25;;;1.46;87.23
71772;BME280;59606;52.138;5.424;2023-02-28T00:25:04;103363.28;;;1.47;87.50
71772;BME280;59606;52.138;5.424;2023-02-28T00:27:34;103365.06;;;1.50;87.42
71772;BME280;59606;52.138;5.424;2023-02-28T00:30:01;103364.19;;;1.49;87.55
71772;BME280;59606;52.138;5.424;2023-02-28T00:32:28;103354.00;;;1.52;87.84
71772;BME280;59606;52.138;5.424;2023-02-28T00:34:55;103359.13;;;1.52;88.01
71772;BME280;59606;52.138;5.424;2023-02-28T00:37:21;103353.16;;;1.53;87.95
71772;BME280;59606;52.138;5.424;2023-02-28T00:39:48;103351.50;;;1.55;87.99
71772;BME280;59606;52.138;5.424;2023-02-28T00:42:14;103353.22;;;1.56;88.06
71772;BME280;59606;52.138;5.424;2023-02-28T00:44:41;103354.94;;;1.57;88.02
71772;BME280;59606;52.138;5.424;2023-02-28T00:47:07;103352.44;;;1.59;88.33
71772;BME280;59606;52.138;5.424;2023-02-28T00:49:33;103357.59;;;1.60;88.47
71772;BME280;59606;52.138;5.424;2023-02-28T00:52:00;103349.88;;;1.60;88.41
71772;BME280;59606;52.138;5.424;2023-02-28T00:54:27;103353.38;;;1.62;88.45
71772;BME280;59606;52.138;5.424;2023-02-28T00:56:53;103346.53;;;1.63;88.45
71772;BME280;59606;52.138;5.424;2023-02-28T00:59:19;103351.72;;;1.64;88.67
71772;BME280;59606;52.138;5.424;2023-02-28T01:01:46;103351.72;;;1.66;88.97
71772;BME280;59606;52.138;5.424;2023-02-28T01:04:13;103355.22;;;1.68;89.06
71772;BME280;59606;52.138;5.424;2023-02-28T01:06:41;103356.97;;;1.71;88.99
71772;BME280;59606;52.138;5.424;2023-02-28T01:09:07;103357.88;;;1.71;88.92
71772;BME280;59606;52.138;5.424;2023-02-28T01:11:34;103357.00;;;1.72;88.86
71772;BME280;59606;52.138;5.424;2023-02-28T01:14:01;103353.59;;;1.72;88.88
71772;BME280;59606;52.138;5.424;2023-02-28T01:16:28;103357.00;;;1.72;88.81
71772;BME280;59606;52.138;5.424;2023-02-28T01:18:54;103350.19;;;1.74;89.04
71772;BME280;59606;52.138;5.424;2023-02-28T01:21:21;103350.19;;;1.74;89.07
71772;BME280;59606;52.138;5.424;2023-02-28T01:23:48;103354.53;;;1.75;89.04
71772;BME280;59606;52.138;5.424;2023-02-28T01:26:20;103351.97;;;1.77;88.92
71772;BME280;59606;52.138;5.424;2023-02-28T01:28:47;103349.41;;;1.77;89.19
71772;BME280;59606;52.138;5.424;2023-02-28T01:31:17;103344.31;;;1.78;89.23
71772;BME280;59606;52.138;5.424;2023-02-28T01:33:45;103342.56;;;1.77;89.07
71772;BME280;59606;52.138;5.424;2023-02-28T01:36:22;103340.03;;;1.79;89.42
71772;BME280;59606;52.138;5.424;2023-02-28T01:38:50;103344.38;;;1.81;89.36
71772;BME280;59606;52.138;5.424;2023-02-28T01:41:20;103338.34;;;1.81;89.58
71772;BME280;59606;52.138;5.424;2023-02-28T01:46:14;103345.25;;;1.83;89.43
71772;BME280;59606;52.138;5.424;2023-02-28T01:48:47;103343.56;;;1.84;89.52
71772;BME280;59606;52.138;5.424;2023-02-28T01:51:19;103345.31;;;1.85;89.39
71772;BME280;59606;52.138;5.424;2023-02-28T01:53:51;103335.91;;;1.85;89.46
71772;BME280;59606;52.138;5.424;2023-02-28T01:56:23;103339.31;;;1.86;89.72
71772;BME280;59606;52.138;5.424;2023-02-28T01:58:51;103334.22;;;1.87;89.58
71772;BME280;59606;52.138;5.424;2023-02-28T02:01:19;103328.19;;;1.87;89.50
71772;BME280;59606;52.138;5.424;2023-02-28T02:03:49;103324.78;;;1.86;89.78
71772;BME280;59606;52.138;5.424;2023-02-28T02:06:23;103323.06;;;1.87;89.68
71772;BME280;59606;52.138;5.424;2023-02-28T02:08:51;103323.94;;;1.87;90.25
71772;BME280;59606;52.138;5.424;2023-02-28T02:11:20;103319.63;;;1.86;89.90
71772;BME280;59606;52.138;5.424;2023-02-28T02:19:53;103315.41;;;1.88;90.05
71772;BME280;59606;52.138;5.424;2023-02-28T02:23:01;103314.53;;;1.88;90.04
71772;BME280;59606;52.138;5.424;2023-02-28T02:25:28;103317.13;;;1.89;90.08
71772;BME280;59606;52.138;5.424;2023-02-28T02:31:08;103321.41;;;1.91;89.97
71772;BME280;59606;52.138;5.424;2023-02-28T02:36:28;103322.34;;;1.93;90.17
71772;BME280;59606;52.138;5.424;2023-02-28T02:39:14;103323.25;;;1.95;90.34
71772;BME280;59606;52.138;5.424;2023-02-28T02:41:51;103321.53;;;1.95;90.26
71772;BME280;59606;52.138;5.424;2023-02-28T02:47:17;103321.56;;;1.97;90.13
71772;BME280;59606;52.138;5.424;2023-02-28T02:49:51;103326.75;;;1.98;90.54
71772;BME280;59606;52.138;5.424;2023-02-28T02:52:21;103322.47;;;1.99;90.50
71772;BME280;59606;52.138;5.424;2023-02-28T02:54:52;103319.03;;;1.98;90.80
71772;BME280;59606;52.138;5.424;2023-02-28T02:57:30;103324.25;;;2.01;90.80
71772;BME280;59606;52.138;5.424;2023-02-28T03:00:00;103317.34;;;2.00;90.86
71772;BME280;59606;52.138;5.424;2023-02-28T03:02:29;103317.41;;;2.02;90.95
71772;BME280;59606;52.138;5.424;2023-02-28T03:05:04;103315.69;;;2.02;91.04
71772;BME280;59606;52.138;5.424;2023-02-28T03:07:32;103323.41;;;2.02;91.16
71772;BME280;59606;52.138;5.424;2023-02-28T03:09:59;103326.00;;;2.04;91.21
71772;BME280;59606;52.138;5.424;2023-02-28T03:12:40;103323.47;;;2.05;91.23
71772;BME280;59606;52.138;5.424;2023-02-28T03:15:24;103326.03;;;2.05;91.38
71772;BME280;59606;52.138;5.424;2023-02-28T03:18:08;103321.72;;;2.04;91.56
71772;BME280;59606;52.138;5.424;2023-02-28T03:20:49;103320.91;;;2.07;91.55
71772;BME280;59606;52.138;5.424;2023-02-28T03:23:35;103313.19;;;2.05;91.61
71772;BME280;59606;52.138;5.424;2023-02-28T03:26:11;103320.03;;;2.05;91.78
71772;BME280;59606;52.138;5.424;2023-02-28T03:31:30;103331.19;;;2.07;91.77
71772;BME280;59606;52.138;5.424;2023-02-28T03:36:37;103326.09;;;2.08;91.99
71772;BME280;59606;52.138;5.424;2023-02-28T03:39:14;103324.34;;;2.07;92.04
71772;BME280;59606;52.138;5.424;2023-02-28T03:41:46;103327.81;;;2.08;92.08
71772;BME280;59606;52.138;5.424;2023-02-28T03:44:20;103332.94;;;2.08;91.96
71772;BME280;59606;52.138;5.424;2023-02-28T03:47:01;103341.53;;;2.08;91.86
71772;BME280;59606;52.138;5.424;2023-02-28T03:49:37;103337.25;;;2.09;91.92
71772;BME280;59606;52.138;5.424;2023-02-28T03:52:09;103339.78;;;2.07;92.16
71772;BME280;59606;52.138;5.424;2023-02-28T03:54:41;103338.91;;;2.07;91.89
71772;BME280;59606;52.138;5.424;2023-02-28T04:00:18;103349.19;;;2.05;91.53
71772;BME280;59606;52.138;5.424;2023-02-28T04:02:46;103336.31;;;2.05;91.17
71772;BME280;59606;52.138;5.424;2023-02-28T04:05:22;103338.88;;;2.05;91.45
71772;BME280;59606;52.138;5.424;2023-02-28T04:07:49;103336.28;;;2.04;91.14
71772;BME280;59606;52.138;5.424;2023-02-28T04:10:16;103332.88;;;2.05;91.19
71772;BME280;59606;52.138;5.424;2023-02-28T04:12:43;103345.69;;;2.03;90.82
71772;BME280;59606;52.138;5.424;2023-02-28T04:15:10;103345.69;;;2.03;90.56
71772;BME280;59606;52.138;5.424;2023-02-28T04:17:37;103343.09;;;2.02;89.76
71772;BME280;59606;52.138;5.424;2023-02-28T04:20:04;103344.81;;;2.01;89.12
71772;BME280;59606;52.138;5.424;2023-02-28T04:22:36;103339.66;;;2.01;87.92
71772;BME280;59606;52.138;5.424;2023-02-28T04:25:04;103348.19;;;2.00;86.68
71772;BME280;59606;52.138;5.424;2023-02-28T04:27:32;103345.59;;;1.99;85.78
71772;BME280;59606;52.138;5.424;2023-02-28T04:29:58;103345.53;;;1.96;84.50
71772;BME280;59606;52.138;5.424;2023-02-28T04:32:25;103354.97;;;1.95;83.44
71772;BME280;59606;52.138;5.424;2023-02-28T04:34:51;103351.47;;;1.93;83.09
71772;BME280;59606;52.138;5.424;2023-02-28T04:37:18;103351.53;;;1.95;82.85
71772;BME280;59606;52.138;5.424;2023-02-28T04:39:45;103350.59;;;1.93;82.08
71772;BME280;59606;52.138;5.424;2023-02-28T04:42:12;103354.88;;;1.92;81.79
71772;BME280;59606;52.138;5.424;2023-02-28T04:44:38;103356.53;;;1.90;81.98
71772;BME280;59606;52.138;5.424;2023-02-28T04:47:05;103357.41;;;1.91;81.37
71772;BME280;59606;52.138;5.424;2023-02-28T04:49:31;103355.69;;;1.89;81.61
71772;BME280;59606;52.138;5.424;2023-02-28T04:51:58;103353.97;;;1.90;81.54
71772;BME280;59606;52.138;5.424;2023-02-28T04:54:25;103349.69;;;1.89;81.64
71772;BME280;59606;52.138;5.424;2023-02-28T04:56:51;103348.81;;;1.88;81.58
71772;BME280;59606;52.138;5.424;2023-02-28T04:59:18;103354.75;;;1.86;81.77
71772;BME280;59606;52.138;5.424;2023-02-28T05:01:48;103360.69;;;1.83;81.54
71772;BME280;59606;52.138;5.424;2023-02-28T05:04:15;103355.47;;;1.80;81.93
71772;BME280;59606;52.138;5.424;2023-02-28T05:06:42;103353.69;;;1.76;82.17
71772;BME280;59606;52.138;5.424;2023-02-28T05:09:09;103346.75;;;1.74;82.55
71772;BME280;59606;52.138;5.424;2023-02-28T05:11:38;103350.97;;;1.70;82.95
71772;BME280;59606;52.138;5.424;2023-02-28T05:14:10;103352.66;;;1.68;83.80
71772;BME280;59606;52.138;5.424;2023-02-28T05:16:37;103350.88;;;1.65;84.03
71772;BME280;59606;52.138;5.424;2023-02-28T05:19:03;103351.66;;;1.63;84.18
71772;BME280;59606;52.138;5.424;2023-02-28T05:21:31;103361.00;;;1.59;84.77
71772;BME280;59606;52.138;5.424;2023-02-28T05:24:01;103360.97;;;1.58;85.13
71772;BME280;59606;52.138;5.424;2023-02-28T05:26:28;103360.91;;;1.55;85.39
71772;BME280;59606;52.138;5.424;2023-02-28T05:28:55;103366.03;;;1.55;85.52
71772;BME280;59606;52.138;5.424;2023-02-28T05:31:22;103355.78;;;1.55;85.81
71772;BME280;59606;52.138;5.424;2023-02-28T05:33:49;103361.69;;;1.52;86.26
71772;BME280;59606;52.138;5.424;2023-02-28T05:36:15;103361.66;;;1.51;86.39
71772;BME280;59606;52.138;5.424;2023-02-28T05:38:42;103359.03;;;1.48;86.45
71772;BME280;59606;52.138;5.424;2023-02-28T05:41:10;103360.72;;;1.47;86.38
71772;BME280;59606;52.138;5.424;2023-02-28T05:43:37;103358.13;;;1.47;86.71
71772;BME280;59606;52.138;5.424;2023-02-28T05:46:05;103362.47;;;1.48;86.98
71772;BME280;59606;52.138;5.424;2023-02-28T05:48:34;103361.63;;;1.49;87.24
71772;BME280;59606;52.138;5.424;2023-02-28T05:51:01;103355.63;;;1.49;87.43
71772;BME280;59606;52.138;5.424;2023-02-28T05:53:29;103366.75;;;1.48;87.33
71772;BME280;59606;52.138;5.424;2023-02-28T05:55:56;103367.53;;;1.47;87.59
71772;BME280;59606;52.138;5.424;2023-02-28T05:58:23;103367.53;;;1.45;87.37
71772;BME280;59606;52.138;5.424;2023-02-28T06:00:51;103360.59;;;1.42;88.11
71772;BME280;59606;52.138;5.424;2023-02-28T06:03:18;103357.97;;;1.39;87.93
71772;BME280;59606;52.138;5.424;2023-02-28T06:05:44;103359.66;;;1.39;88.43
71772;BME280;59606;52.138;5.424;2023-02-28T06:08:11;103361.41;;;1.40;89.23
71772;BME280;59606;52.138;5.424;2023-02-28T06:10:37;103361.38;;;1.38;89.21
71772;BME280;59606;52.138;5.424;2023-02-28T06:13:04;103360.47;;;1.36;89.58
71772;BME280;59606;52.138;5.424;2023-02-28T06:15:31;103359.56;;;1.34;89.68
71772;BME280;59606;52.138;5.424;2023-02-28T06:17:58;103357.00;;;1.34;90.16
71772;BME280;59606;52.138;5.424;2023-02-28T06:20:26;103359.59;;;1.36;90.41
71772;BME280;59606;52.138;5.424;2023-02-28T06:22:56;103355.16;;;1.30;90.27
71772;BME280;59606;52.138;5.424;2023-02-28T06:25:26;103353.41;;;1.28;90.22
71772;BME280;59606;52.138;5.424;2023-02-28T06:27:54;103352.53;;;1.27;90.45
71772;BME280;59606;52.138;5.424;2023-02-28T06:30:21;103352.59;;;1.30;91.16
71772;BME280;59606;52.138;5.424;2023-02-28T06:32:53;103358.66;;;1.32;91.19
71772;BME280;59606;52.138;5.424;2023-02-28T06:35:22;103356.94;;;1.33;91.00
71772;BME280;59606;52.138;5.424;2023-02-28T06:37:48;103353.50;;;1.31;90.98
71772;BME280;59606;52.138;5.424;2023-02-28T06:40:15;103360.28;;;1.29;91.48
71772;BME280;59606;52.138;5.424;2023-02-28T06:42:42;103351.78;;;1.31;91.87
71772;BME280;59606;52.138;5.424;2023-02-28T06:45:10;103357.00;;;1.34;91.80
71772;BME280;59606;52.138;5.424;2023-02-28T06:47:40;103352.72;;;1.35;92.19
71772;BME280;59606;52.138;5.424;2023-02-28T06:50:09;103344.19;;;1.36;92.43
71772;BME280;59606;52.138;5.424;2023-02-28T06:52:37;103349.31;;;1.36;92.24
71772;BME280;59606;52.138;5.424;2023-02-28T06:55:06;103361.38;;;1.38;92.59
71772;BME280;59606;52.138;5.424;2023-02-28T06:57:35;103363.97;;;1.40;92.70
71772;BME280;59606;52.138;5.424;2023-02-28T07:00:09;103368.34;;;1.44;92.97
71772;BME280;59606;52.138;5.424;2023-02-28T07:02:36;103365.84;;;1.47;92.94
71772;BME280;59606;52.138;5.424;2023-02-28T07:05:05;103371.03;;;1.49;92.84
71772;BME280;59606;52.138;5.424;2023-02-28T07:07:32;103371.03;;;1.49;92.89
71772;BME280;59606;52.138;5.424;2023-02-28T07:09:58;103374.53;;;1.52;92.87
71772;BME280;59606;52.138;5.424;2023-02-28T07:12:25;103370.31;;;1.54;93.00
71772;BME280;59606;52.138;5.424;2023-02-28T07:14:51;103366.03;;;1.55;93.20
71772;BME280;59606;52.138;5.424;2023-02-28T07:17:18;103371.19;;;1.55;93.15
71772;BME280;59606;52.138;5.424;2023-02-28T07:19:44;103366.94;;;1.57;92.96
71772;BME280;59606;52.138;5.424;2023-02-28T07:22:11;103369.56;;;1.58;92.99
71772;BME280;59606;52.138;5.424;2023-02-28T07:24:40;103382.34;;;1.57;92.97
71772;BME280;59606;52.138;5.424;2023-02-28T07:27:07;103390.09;;;1.58;93.07
71772;BME280;59606;52.138;5.424;2023-02-28T07:29:33;103381.56;;;1.59;93.05
71772;BME280;59606;52.138;5.424;2023-02-28T07:32:00;103379.00;;;1.61;93.41
71772;BME280;59606;52.138;5.424;2023-02-28T07:34:26;103379.13;;;1.65;93.49
71772;BME280;59606;52.138;5.424;2023-02-28T07:36:54;103372.28;;;1.66;93.50
71772;BME280;59606;52.138;5.424;2023-02-28T07:39:21;103377.44;;;1.68;93.48
71772;BME280;59606;52.138;5.424;2023-02-28T07:41:48;103380.06;;;1.69;93.54
71772;BME280;59606;52.138;5.424;2023-02-28T07:44:15;103386.94;;;1.70;93.54
71772;BME280;59606;52.138;5.424;2023-02-28T07:46:41;103397.22;;;1.70;93.75
71772;BME280;59606;52.138;5.424;2023-02-28T07:49:08;103395.56;;;1.72;93.49
71772;BME280;59606;52.138;5.424;2023-02-28T07:51:34;103388.72;;;1.73;93.65
71772;BME280;59606;52.138;5.424;2023-02-28T07:54:01;103389.56;;;1.73;93.36
71772;BME280;59606;52.138;5.424;2023-02-28T07:56:28;103382.78;;;1.75;93.56
71772;BME280;59606;52.138;5.424;2023-02-28T07:58:55;103388.88;;;1.79;93.61
71772;BME280;59606;52.138;5.424;2023-02-28T08:01:21;103383.78;;;1.82;93.64
71772;BME280;59606;52.138;5.424;2023-02-28T08:03:48;103392.47;;;1.87;93.63
71772;BME280;59606;52.138;5.424;2023-02-28T08:06:18;103394.25;;;1.89;93.88
71772;BME280;59606;52.138;5.424;2023-02-28T08:08:46;103405.44;;;1.92;93.58
71772;BME280;59606;52.138;5.424;2023-02-28T08:11:13;103411.47;;;1.94;93.34
71772;BME280;59606;52.138;5.424;2023-02-28T08:13:40;103409.88;;;1.99;93.39
71772;BME280;59606;52.138;5.424;2023-02-28T08:16:08;103401.38;;;2.01;93.47
71772;BME280;59606;52.138;5.424;2023-02-28T08:18:35;103410.88;;;2.05;93.76
71772;BME280;59606;52.138;5.424;2023-02-28T08:21:09;103421.16;;;2.05;93.24
71772;BME280;59606;52.138;5.424;2023-02-28T08:23:36;103413.53;;;2.08;93.16
71772;BME280;59606;52.138;5.424;2023-02-28T08:26:03;103413.59;;;2.11;93.09
71772;BME280;59606;52.138;5.424;2023-02-28T08:28:30;103411.09;;;2.16;92.91
71772;BME280;59606;52.138;5.424;2023-02-28T08:30:57;103415.47;;;2.20;92.86
71772;BME280;59606;52.138;5.424;2023-02-28T08:33:25;103407.91;;;2.26;92.64
71772;BME280;59606;52.138;5.424;2023-02-28T08:35:53;103405.41;;;2.31;92.40
71772;BME280;59606;52.138;5.424;2023-02-28T08:38:20;103407.25;;;2.36;91.69
71772;BME280;59606;52.138;5.424;2023-02-28T08:40:47;103410.72;;;2.39;91.56
71772;BME280;59606;52.138;5.424;2023-02-28T08:43:13;103412.47;;;2.41;90.73
71772;BME280;59606;52.138;5.424;2023-02-28T08:45:40;103406.59;;;2.47;90.66
71772;BME280;59606;52.138;5.424;2023-02-28T08:48:07;103405.88;;;2.52;90.05
71772;BME280;59606;52.138;5.424;2023-02-28T08:50:33;103396.50;;;2.57;89.75
71772;BME280;59606;52.138;5.424;2023-02-28T08:53:00;103391.44;;;2.60;89.04
71772;BME280;59606;52.138;5.424;2023-02-28T08:55:26;103394.06;;;2.64;87.84
71772;BME280;59606;52.138;5.424;2023-02-28T08:57:53;103396.69;;;2.67;86.57
71772;BME280;59606;52.138;5.424;2023-02-28T09:00:22;103402.69;;;2.66;86.12
71772;BME280;59606;52.138;5.424;2023-02-28T09:02:48;103404.44;;;2.68;85.26
71772;BME280;59606;52.138;5.424;2023-02-28T09:05:15;103393.31;;;2.69;83.90
71772;BME280;59606;52.138;5.424;2023-02-28T09:07:41;103407.97;;;2.73;83.31
71772;BME280;59606;52.138;5.424;2023-02-28T09:10:09;103395.28;;;2.82;83.60
71772;BME280;59606;52.138;5.424;2023-02-28T09:12:36;103392.97;;;2.98;82.89
71772;BME280;59606;52.138;5.424;2023-02-28T09:15:03;103398.47;;;3.16;81.17
71772;BME280;59606;52.138;5.424;2023-02-28T09:17:30;103397.88;;;3.33;79.82
71772;BME280;59606;52.138;5.424;2023-02-28T09:19:57;103397.31;;;3.52;79.32
71772;BME280;59606;52.138;5.424;2023-02-28T09:22:24;103396.72;;;3.68;78.30
71772;BME280;59606;52.138;5.424;2023-02-28T09:24:50;103397.72;;;3.76;76.50
71772;BME280;59606;52.138;5.424;2023-02-28T09:27:17;103401.25;;;3.85;74.45
71772;BME280;59606;52.138;5.424;2023-02-28T09:29:43;103392.72;;;3.87;73.19
71772;BME280;59606;52.138;5.424;2023-02-28T09:32:10;103387.66;;;3.93;71.44
71772;BME280;59606;52.138;5.424;2023-02-28T09:34:37;103397.16;;;3.97;70.67
71772;BME280;59606;52.138;5.424;2023-02-28T09:37:04;103395.53;;;4.04;69.17
71772;BME280;59606;52.138;5.424;2023-02-28T09:39:31;103407.69;;;4.14;68.11
71772;BME280;59606;52.138;5.424;2023-02-28T09:41:58;103404.34;;;4.20;64.32
71772;BME280;59606;52.138;5.424;2023-02-28T09:44:37;103405.28;;;4.27;64.26
71772;BME280;59606;52.138;5.424;2023-02-28T09:47:27;103401.75;;;4.21;64.38
71772;BME280;59606;52.138;5.424;2023-02-28T09:49:57;103405.06;;;4.11;63.25
71772;BME280;59606;52.138;5.424;2023-02-28T09:52:30;103404.13;;;4.05;63.72
71772;BME280;59606;52.138;5.424;2023-02-28T09:57:46;103411.03;;;4.07;62.65
71772;BME280;59606;52.138;5.424;2023-02-28T10:00:20;103406.88;;;4.17;62.17
71772;BME280;59606;52.138;5.424;2023-02-28T10:03:25;103400.09;;;4.25;60.90
71772;BME280;59606;52.138;5.424;2023-02-28T10:08:30;103407.19;;;4.41;59.83
71772;BME280;59606;52.138;5.424;2023-02-28T10:11:01;103404.69;;;4.47;60.11
71772;BME280;59606;52.138;5.424;2023-02-28T10:13:34;103398.72;;;4.53;59.21
71772;BME280;59606;52.138;5.424;2023-02-28T10:16:06;103397.97;;;4.63;58.94
71772;BME280;59606;52.138;5.424;2023-02-28T10:18:47;103390.34;;;4.76;58.50
71772;BME280;59606;52.138;5.424;2023-02-28T10:21:21;103385.31;;;4.86;57.07
71772;BME280;59606;52.138;5.424;2023-02-28T10:23:48;103388.75;;;4.87;57.29
71772;BME280;59606;52.138;5.424;2023-02-28T10:26:17;103378.47;;;4.91;57.00
71772;BME280;59606;52.138;5.424;2023-02-28T10:28:44;103373.34;;;4.96;57.30
71772;BME280;59606;52.138;5.424;2023-02-28T10:31:15;103375.22;;;5.15;56.62
71772;BME280;59606;52.138;5.424;2023-02-28T10:33:43;103378.78;;;5.30;56.00
71772;BME280;59606;52.138;5.424;2023-02-28T10:36:15;103378.88;;;5.39;54.44
71772;BME280;59606;52.138;5.424;2023-02-28T10:38:44;103376.31;;;5.42;53.99
71772;BME280;59606;52.138;5.424;2023-02-28T10:44:13;103381.53;;;5.48;53.29
71772;BME280;59606;52.138;5.424;2023-02-28T10:46:41;103379.84;;;5.52;53.72
71772;BME280;59606;52.138;5.424;2023-02-28T10:49:27;103375.50;;;5.49;53.05
71772;BME280;59606;52.138;5.424;2023-02-28T10:51:59;103377.25;;;5.52;53.25
71772;BME280;59606;52.138;5.424;2023-02-28T10:54:34;103373.81;;;5.51;52.87
71772;BME280;59606;52.138;5.424;2023-02-28T10:57:20;103370.41;;;5.57;53.25
71772;BME280;59606;52.138;5.424;2023-02-28T10:59:51;103372.13;;;5.58;52.19
71772;BME280;59606;52.138;5.424;2023-02-28T11:02:33;103357.47;;;5.58;52.55
71772;BME280;59606;52.138;5.424;2023-02-28T11:04:59;103360.06;;;5.58;52.33
71772;BME280;59606;52.138;5.424;2023-02-28T11:07:26;103360.06;;;5.63;51.37
71772;BME280;59606;52.138;5.424;2023-02-28T11:10:16;103361.88;;;5.72;52.56
71772;BME280;59606;52.138;5.424;2023-02-28T11:12:45;103357.56;;;5.71;52.23
71772;BME280;59606;52.138;5.424;2023-02-28T11:15:23;103347.19;;;5.69;51.28
71772;BME280;59606;52.138;5.424;2023-02-28T11:18:23;103354.09;;;5.72;51.24
71772;BME280;59606;52.138;5.424;2023-02-28T11:20:50;103352.38;;;5.67;51.12
71772;BME280;59606;52.138;5.424;2023-02-28T11:23:18;103351.53;;;5.75;51.36
71772;BME280;59606;52.138;5.424;2023-02-28T11:25:52;103351.53;;;5.75;50.78
71772;BME280;59606;52.138;5.424;2023-02-28T11:28:34;103347.28;;;5.81;50.63
71772;BME280;59606;52.138;5.424;2023-02-28T11:38:47;103337.06;;;6.06;50.33
71772;BME280;59606;52.138;5.424;2023-02-28T11:41:33;103337.91;;;5.99;49.91
71772;BME280;59606;52.138;5.424;2023-02-28T11:44:48;103324.97;;;6.03;50.28
71772;BME280;59606;52.138;5.424;2023-02-28T11:47:38;103330.16;;;6.06;50.15
71772;BME280;59606;52.138;5.424;2023-02-28T11:53:02;103328.44;;;6.02;48.95
71772;BME280;59606;52.138;5.424;2023-02-28T11:55:36;103329.31;;;6.04;49.13
71772;BME280;59606;52.138;5.424;2023-02-28T12:01:07;103320.72;;;6.11;48.70
71772;BME280;59606;52.138;5.424;2023-02-28T12:03:58;103319.84;;;6.20;48.69
71772;BME280;59606;52.138;5.424;2023-02-28T12:15:16;103310.41;;;6.33;48.76
71772;BME280;59606;52.138;5.424;2023-02-28T12:18:05;103302.66;;;6.42;49.36
71772;BME280;59606;52.138;5.424;2023-02-28T12:21:08;103307.88;;;6.45;49.28
71772;BME280;59606;52.138;5.424;2023-02-28T12:26:38;103303.53;;;6.50;47.56
71772;BME280;59606;52.138;5.424;2023-02-28T12:29:14;103302.69;;;6.48;48.90
71772;BME280;59606;52.138;5.424;2023-02-28T12:31:53;103294.06;;;6.58;48.08
71772;BME280;59606;52.138;5.424;2023-02-28T12:34:28;103288.88;;;6.57;47.48
71772;BME280;59606;52.138;5.424;2023-02-28T12:37:02;103287.16;;;6.56;47.00
71772;BME280;59606;52.138;5.424;2023-02-28T12:39:35;103290.63;;;6.66;47.55
71772;BME280;59606;52.138;5.424;2023-02-28T12:42:25;103291.50;;;6.69;47.76
71772;BME280;59606;52.138;5.424;2023-02-28T12:45:10;103298.41;;;6.73;46.69
71772;BME280;59606;52.138;5.424;2023-02-28T12:47:40;103296.69;;;6.65;46.77
71772;BME280;59606;52.138;5.424;2023-02-28T12:50:10;103289.75;;;6.60;46.39
71772;BME280;59606;52.138;5.424;2023-02-28T12:55:27;103266.47;;;6.71;47.31
71772;BME280;59606;52.138;5.424;2023-02-28T13:00:38;103273.38;;;6.81;46.47
71772;BME280;59606;52.138;5.424;2023-02-28T13:05:53;103266.44;;;6.90;46.77
71772;BME280;59606;52.138;5.424;2023-02-28T13:10:58;103265.59;;;7.04;46.33
71772;BME280;59606;52.138;5.424;2023-02-28T13:13:27;103267.28;;;7.07;45.59
71772;BME280;59606;52.138;5.424;2023-02-28T13:16:08;103263.84;;;7.00;45.99
71772;BME280;59606;52.138;5.424;2023-02-28T13:18:42;103266.44;;;6.97;44.99
71772;BME280;59606;52.138;5.424;2023-02-28T13:21:23;103268.19;;;6.98;45.19
71772;BME280;59606;52.138;5.424;2023-02-28T13:34:42;103253.50;;;6.99;44.67
71772;BME280;59606;52.138;5.424;2023-02-28T13:39:54;103250.03;;;7.04;45.17
71772;BME280;59606;52.138;5.424;2023-02-28T13:52:56;103240.50;;;7.20;45.13
71772;BME280;59606;52.138;5.424;2023-02-28T13:55:37;103236.19;;;7.19;45.08
71772;BME280;59606;52.138;5.424;2023-02-28T14:01:21;103230.97;;;7.21;43.91
71772;BME280;59606;52.138;5.424;2023-02-28T14:06:33;103229.28;;;7.15;44.62
71772;BME280;59606;52.138;5.424;2023-02-28T14:09:06;103222.34;;;7.22;44.68
71772;BME280;59606;52.138;5.424;2023-02-28T14:11:43;103227.53;;;7.19;44.67
71772;BME280;59606;52.138;5.424;2023-02-28T14:17:04;103224.06;;;7.23;44.49
71772;BME280;59606;52.138;5.424;2023-02-28T14:19:32;103221.50;;;7.17;43.98
71772;BME280;59606;52.138;5.424;2023-02-28T14:25:34;103222.34;;;7.25;45.09
71772;BME280;59606;52.138;5.424;2023-02-28T14:30:57;103216.31;;;7.18;43.51
71772;BME280;59606;52.138;5.424;2023-02-28T14:33:35;103212.88;;;7.18;43.90
71772;BME280;59606;52.138;5.424;2023-02-28T14:36:22;103211.13;;;7.18;44.66
71772;BME280;59606;52.138;5.424;2023-02-28T14:39:05;103212.88;;;7.15;43.94
71772;BME280;59606;52.138;5.424;2023-02-28T14:41:38;103213.72;;;7.14;44.54
71772;BME280;59606;52.138;5.424;2023-02-28T14:44:25;103207.66;;;7.19;44.97
71772;BME280;59606;52.138;5.424;2023-02-28T14:46:57;103204.19;;;7.23;45.40
71772;BME280;59606;52.138;5.424;2023-02-28T14:49:41;103202.47;;;7.22;44.89
71772;BME280;59606;52.138;5.424;2023-02-28T14:52:15;103200.72;;;7.27;44.87
71772;BME280;59606;52.138;5.424;2023-02-28T14:54:43;103202.44;;;7.30;45.40
71772;BME280;59606;52.138;5.424;2023-02-28T15:00:27;103208.50;;;7.23;44.78
71772;BME280;59606;52.138;5.424;2023-02-28T15:02:55;103197.25;;;7.30;45.45
71772;BME280;59606;52.138;5.424;2023-02-28T15:05:33;103209.41;;;7.22;43.93
71772;BME280;59606;52.138;5.424;2023-02-28T15:08:12;103210.25;;;7.16;43.72
71772;BME280;59606;52.138;5.424;2023-02-28T15:10:42;103204.25;;;7.11;43.95